Saint-Timothee, Canada
Current Conditions -  °F | °C
As of 1:00 PM on Thursday 29 Jan 2015 (Local Time) from CYUL Reporting Station
Overcast Overcast  
Wind Chill:   Ceiling: 14000
Heat Index: 21°   Visibility: 15mi
Dew Point:   Wind: 14mph
Humidity: 46%   Direction: 70°ENE
Pressure: 30.07"   Gusts: NA
Location:  45.28°N, 74.05°W
Report Text: CYUL 291800Z 07012KT 15SM BKN140 OVC170 M06/M16 A3007 RMK AS6AS2 PRESFR SLP186
Loading
Personal Weather Stations






























Interactive Weather Map New forecast layout! Learn more

10-Day Weather Forecast

Advertisements
Track Severe Weather on mobile